Time;durP1;ratioP1;P1;durP2;ratioP2;P2;SDS_P1;SDS_P2;PMS_P1;PMS_P2;Temp;Humidity;BMP_temperature;BMP_pressure;BME280_temperature;BME280_humidity;BME280_pressure;Samples;Min_cycle;Max_cycle;Signal;HPM_P1;HPM_P2
2023/03/29 00:00:07;;;;;;;3.77;1.50;;;;;;;0.34;87.79;100096.78;6202944;22;20619;-85
2023/03/29 00:02:37;;;;;;;2.23;1.40;;;;;;;0.29;88.93;100105.13;6229668;22;20156;-82
2023/03/29 00:05:05;;;;;;;3.50;1.50;;;;;;;0.27;89.58;100103.63;6202606;22;20172;-82
2023/03/29 00:07:32;;;;;;;4.17;1.73;;;;;;;0.20;90.71;100097.25;6202732;22;20255;-83
2023/03/29 00:10:00;;;;;;;3.30;1.40;;;;;;;0.12;92.37;100100.59;6202577;22;20665;-85
2023/03/29 00:12:27;;;;;;;4.57;1.43;;;;;;;0.03;92.62;100103.25;6202644;22;20168;-85
2023/03/29 00:14:54;;;;;;;2.93;1.60;;;;;;;0.03;93.00;100104.06;6227277;22;20184;-82
2023/03/29 00:17:21;;;;;;;1.77;1.47;;;;;;;-0.02;93.36;100107.13;6202615;22;20164;-82
2023/03/29 00:19:48;;;;;;;2.90;1.87;;;;;;;-0.04;93.75;100118.75;6202452;22;20176;-83
2023/03/29 00:22:15;;;;;;;4.47;1.67;;;;;;;-0.13;94.16;100106.44;6202695;22;20168;-84
2023/03/29 00:24:42;;;;;;;3.63;1.60;;;;;;;-0.20;95.01;100105.34;6202717;22;20603;-84
2023/03/29 00:27:08;;;;;;;3.60;1.50;;;;;;;-0.14;95.20;100102.16;6227188;22;20168;-83
2023/03/29 00:29:35;;;;;;;7.13;1.70;;;;;;;-0.23;95.55;100106.44;6227554;22;20195;-82
2023/03/29 00:32:02;;;;;;;4.70;1.73;;;;;;;-0.24;95.29;100099.53;6247883;22;20196;-83
2023/03/29 00:34:34;;;;;;;2.90;1.33;;;;;;;-0.21;94.98;100103.69;6252649;22;20192;-83
2023/03/29 00:37:02;;;;;;;3.70;1.33;;;;;;;-0.24;95.01;100101.31;6203286;22;20168;-82
2023/03/29 00:39:30;;;;;;;4.07;1.40;;;;;;;-0.24;94.93;100102.16;6202189;22;20172;-85
2023/03/29 00:41:56;;;;;;;2.97;1.43;;;;;;;-0.28;95.36;100100.75;6202336;22;20194;-84
2023/03/29 00:44:53;;;;;;;3.00;1.30;;;;;;;-0.16;94.70;100107.56;6227556;22;20171;-82
2023/03/29 00:47:23;;;;;;;4.13;1.40;;;;;;;-0.22;94.68;100102.84;6202112;22;20247;-84
2023/03/29 00:49:51;;;;;;;3.80;1.40;;;;;;;-0.26;94.41;100108.53;6227306;22;20168;-84
2023/03/29 00:52:23;;;;;;;1.60;1.10;;;;;;;-0.25;94.67;100110.19;6227293;22;20164;-83
2023/03/29 00:54:52;;;;;;;2.10;1.33;;;;;;;-0.01;93.98;100105.34;6202931;22;20676;-85
2023/03/29 00:57:19;;;;;;;4.03;1.20;;;;;;;-0.16;94.06;100102.28;6227450;22;20168;-83
2023/03/29 00:59:47;;;;;;;4.17;1.10;;;;;;;-0.09;93.89;100100.75;6227204;22;20214;-83
2023/03/29 01:02:15;;;;;;;1.40;1.00;;;;;;;-0.06;93.23;100107.56;6202025;22;20622;-83
2023/03/29 01:04:49;;;;;;;4.73;1.47;;;;;;;-0.05;93.56;100098.69;6202997;22;20176;-83
2023/03/29 01:07:40;;;;;;;3.83;1.07;;;;;;;0.05;92.29;100096.84;6226932;22;20171;-86
2023/03/29 01:10:11;;;;;;;1.40;1.00;;;;;;;0.00;92.72;100097.25;6202051;22;20194;-86
2023/03/29 01:12:43;;;;;;;2.23;1.00;;;;;;;0.09;92.07;100087.72;6226870;22;20192;-84
2023/03/29 01:15:13;;;;;;;2.80;1.40;;;;;;;0.21;91.47;100083.09;6202039;22;20183;-86
2023/03/29 01:17:43;;;;;;;1.40;1.10;;;;;;;0.20;91.39;100090.16;6203425;22;20255;-85
2023/03/29 01:20:25;;;;;;;1.43;1.00;;;;;;;0.16;91.49;100094.06;6203167;22;20160;-86
2023/03/29 01:23:12;;;;;;;3.27;1.40;;;;;;;0.21;91.58;100088.38;6227131;22;20176;-83
2023/03/29 01:25:46;;;;;;;4.43;1.40;;;;;;;0.21;91.28;100093.63;6226951;22;20577;-83
2023/03/29 01:28:16;;;;;;;3.70;1.33;;;;;;;0.18;91.81;100089.50;6251929;22;20168;-85
2023/03/29 01:30:53;;;;;;;4.13;1.53;;;;;;;0.16;91.92;100086.16;6206005;22;20196;-84
2023/03/29 01:33:24;;;;;;;2.53;1.30;;;;;;;0.14;92.26;100082.00;6227711;22;20191;-83
2023/03/29 01:36:15;;;;;;;3.63;1.47;;;;;;;0.11;92.73;100085.75;6251975;22;20188;-84
2023/03/29 01:38:47;;;;;;;2.70;1.60;;;;;;;0.16;92.02;100086.16;6226689;22;20168;-85
2023/03/29 01:41:14;;;;;;;4.07;1.50;;;;;;;0.12;92.19;100082.16;6252203;22;20172;-83
2023/03/29 01:43:49;;;;;;;2.80;1.50;;;;;;;0.06;92.93;100074.81;6252155;22;20168;-83
2023/03/29 01:46:36;;;;;;;3.60;1.80;;;;;;;-0.02;93.62;100070.25;6251931;22;20164;-82
2023/03/29 01:49:10;;;;;;;2.47;1.40;;;;;;;-0.04;94.64;100059.00;6251958;22;20164;-83
2023/03/29 01:52:05;;;;;;;4.13;1.47;;;;;;;0.02;93.62;100069.97;6226929;22;20165;-84
2023/03/29 01:54:36;;;;;;;2.83;1.57;;;;;;;-0.14;94.31;100065.28;6226528;22;20187;-83
2023/03/29 01:57:04;;;;;;;4.77;1.63;;;;;;;-0.19;95.40;100067.50;6251821;22;20598;-83
2023/03/29 01:59:33;;;;;;;3.03;2.00;;;;;;;-0.24;95.20;100062.66;6226985;22;20172;-84
2023/03/29 02:02:04;;;;;;;2.87;1.80;;;;;;;-0.28;95.35;100063.09;6252628;22;20168;-83
2023/03/29 02:04:35;;;;;;;4.27;2.00;;;;;;;-0.30;95.70;100065.84;6251558;22;20168;-82
2023/03/29 02:07:04;;;;;;;4.30;1.93;;;;;;;-0.35;96.38;100062.81;6251577;22;20583;-87
2023/03/29 02:09:32;;;;;;;3.53;1.87;;;;;;;-0.38;96.36;100068.34;6226562;22;20175;-84
2023/03/29 02:12:03;;;;;;;2.47;1.70;;;;;;;-0.42;96.93;100063.50;6227132;22;20664;-83
2023/03/29 02:14:31;;;;;;;5.90;2.20;;;;;;;-0.46;96.78;100062.94;6251348;22;20192;-86
2023/03/29 02:17:23;;;;;;;4.93;2.10;;;;;;;-0.49;97.11;100060.59;6201889;22;20195;-84
2023/03/29 02:20:16;;;;;;;3.23;1.70;;;;;;;-0.52;97.16;100060.88;6252646;22;20248;-84
2023/03/29 02:23:03;;;;;;;4.13;2.03;;;;;;;-0.51;97.56;100062.50;6251543;22;20235;-83
2023/03/29 02:25:31;;;;;;;4.50;1.90;;;;;;;-0.51;97.51;100065.13;6226741;22;20202;-85
2023/03/29 02:27:59;;;;;;;2.97;1.47;;;;;;;-0.56;97.83;100062.94;6226488;22;20164;-85
2023/03/29 02:31:14;;;;;;;3.23;1.83;;;;;;;-0.53;97.87;100051.31;6202527;22;20203;-84
2023/03/29 02:33:56;;;;;;;2.30;1.40;;;;;;;-0.55;97.89;100050.59;6218619;22;20633;-83
2023/03/29 02:36:29;;;;;;;2.97;1.60;;;;;;;-0.63;98.78;100056.56;6201521;22;20210;-85
2023/03/29 02:38:58;;;;;;;3.67;1.63;;;;;;;-0.61;98.97;100061.69;6226025;22;20243;-83
2023/03/29 02:41:25;;;;;;;2.43;1.57;;;;;;;-0.56;99.38;100062.13;6201345;22;20168;-84
2023/03/29 02:43:52;;;;;;;3.50;1.97;;;;;;;-0.55;99.35;100058.50;6226266;22;20206;-83
2023/03/29 02:46:19;;;;;;;5.33;1.77;;;;;;;-0.52;99.53;100063.50;6226657;22;20157;-83
2023/03/29 02:48:48;;;;;;;2.90;1.50;;;;;;;-0.53;98.98;100059.19;6202740;22;20178;-82
2023/03/29 02:51:21;;;;;;;3.07;1.47;;;;;;;-0.50;99.34;100059.75;6201187;22;20168;-83
2023/03/29 02:53:59;;;;;;;5.13;1.97;;;;;;;-0.46;99.41;100063.75;6202156;22;20168;-83
2023/03/29 02:56:26;;;;;;;20.20;12.47;;;;;;;-0.43;99.41;100060.03;6201384;22;20613;-85
2023/03/29 02:58:52;;;;;;;18.00;10.73;;;;;;;-0.39;99.11;100064.06;6226102;22;20251;-84
2023/03/29 03:01:19;;;;;;;17.10;9.87;;;;;;;-0.37;99.32;100070.00;6201380;22;20168;-85
2023/03/29 03:03:49;;;;;;;9.07;6.00;;;;;;;-0.36;99.35;100062.94;6203699;22;20267;-85
2023/03/29 03:06:17;;;;;;;4.67;3.10;;;;;;;-0.28;99.40;100069.16;6204311;22;20168;-84
2023/03/29 03:08:44;;;;;;;3.47;1.80;;;;;;;-0.23;99.04;100058.19;6228266;22;20172;-85
2023/03/29 03:11:11;;;;;;;4.07;1.97;;;;;;;-0.24;99.02;100062.66;6228344;22;20251;-83
2023/03/29 03:13:39;;;;;;;3.47;1.50;;;;;;;-0.22;98.69;100068.59;6205166;22;20168;-84
2023/03/29 03:16:07;;;;;;;3.33;1.73;;;;;;;-0.20;98.66;100061.41;6253162;22;20697;-83
2023/03/29 03:18:35;;;;;;;2.97;1.50;;;;;;;-0.18;98.72;100058.63;6203944;22;20251;-84
2023/03/29 03:21:03;;;;;;;3.33;1.43;;;;;;;-0.19;98.67;100052.53;6203306;22;20178;-83
2023/03/29 03:23:30;;;;;;;2.93;1.53;;;;;;;-0.21;98.80;100043.09;6253736;22;20157;-84
2023/03/29 03:25:57;;;;;;;3.27;1.70;;;;;;;-0.19;98.64;100042.00;6203118;22;20254;-83
2023/03/29 03:28:26;;;;;;;2.33;1.60;;;;;;;-0.03;98.08;100036.97;6203974;22;20176;-84
2023/03/29 03:30:53;;;;;;;3.30;1.70;;;;;;;0.00;97.13;100046.41;6233813;22;20208;-83
2023/03/29 03:33:23;;;;;;;3.67;1.77;;;;;;;-0.03;97.33;100044.03;6229844;22;20172;-82
2023/03/29 03:36:10;;;;;;;7.80;1.63;;;;;;;-0.13;98.02;100037.94;6236525;22;20278;-84
2023/03/29 03:38:42;;;;;;;5.80;1.97;;;;;;;-0.20;98.48;100035.06;6228965;22;20171;-84
2023/03/29 03:41:10;;;;;;;4.47;1.60;;;;;;;-0.17;98.40;100039.22;6203755;22;20218;-83
2023/03/29 03:43:40;;;;;;;3.67;1.97;;;;;;;-0.23;98.35;100034.50;6228088;22;20169;-82
2023/03/29 03:46:07;;;;;;;3.13;1.67;;;;;;;-0.25;98.67;100044.38;6204330;22;20191;-85
2023/03/29 03:48:34;;;;;;;3.80;1.73;;;;;;;-0.28;98.85;100037.56;6202901;22;20614;-85
2023/03/29 03:51:08;;;;;;;4.63;1.60;;;;;;;-0.26;99.16;100038.25;6206448;22;20171;-82
2023/03/29 03:53:35;;;;;;;2.73;1.73;;;;;;;-0.31;98.86;100029.94;6202830;22;20168;-82
2023/03/29 03:56:14;;;;;;;5.60;1.87;;;;;;;-0.29;99.22;100033.28;6243459;22;20172;-85
2023/03/29 03:58:56;;;;;;;3.77;1.70;;;;;;;-0.21;98.84;100030.78;6267334;22;20599;-82
2023/03/29 04:01:26;;;;;;;5.73;2.20;;;;;;;-0.26;99.20;100040.91;6227756;22;20218;-86
2023/03/29 04:04:07;;;;;;;4.33;1.70;;;;;;;-0.23;99.34;100030.06;6209186;22;20161;-86
2023/03/29 04:06:34;;;;;;;6.40;1.90;;;;;;;-0.19;99.28;100028.84;6227654;22;20226;-81
2023/03/29 04:09:21;;;;;;;4.30;3.00;;;;;;;-0.15;99.45;100026.75;6236169;22;20171;-85
2023/03/29 04:11:59;;;;;;;5.17;2.33;;;;;;;-0.17;99.37;100026.88;6207810;22;20194;-84
2023/03/29 04:14:26;;;;;;;4.47;2.83;;;;;;;-0.14;99.51;100031.06;6202889;22;20552;-84
2023/03/29 04:17:04;;;;;;;3.07;1.93;;;;;;;-0.14;99.85;100020.50;6206839;22;20160;-84
2023/03/29 04:20:09;;;;;;;4.97;2.20;;;;;;;-0.12;99.50;100021.19;6110629;23;20186;-82
2023/03/29 04:22:38;;;;;;;4.50;1.50;;;;;;;-0.15;99.77;100026.75;6213372;22;20247;-83
2023/03/29 04:25:09;;;;;;;4.83;1.70;;;;;;;-0.07;100.00;100022.44;6203329;22;20183;-87
2023/03/29 04:27:59;;;;;;;5.70;4.53;;;;;;;-0.11;100.00;100021.06;6206915;22;20179;-87
2023/03/29 04:30:51;;;;;;;3.60;3.07;;;;;;;-0.18;100.00;100019.94;6252326;22;20223;-82
2023/03/29 04:33:33;;;;;;;2.70;2.10;;;;;;;-0.17;100.00;100021.63;6206246;22;20164;-83
2023/03/29 04:36:08;;;;;;;2.00;1.57;;;;;;;-0.11;100.00;100020.22;6203603;22;20191;-82
2023/03/29 04:38:41;;;;;;;2.63;1.50;;;;;;;0.00;100.00;100017.44;6255012;22;20160;-86
2023/03/29 04:41:14;;;;;;;2.17;1.43;;;;;;;-0.01;100.00;100010.50;6228543;22;20191;-81
2023/03/29 04:44:01;;;;;;;2.70;1.40;;;;;;;0.07;100.00;100013.25;6210458;22;20168;-83
2023/03/29 04:46:31;;;;;;;3.57;2.00;;;;;;;0.16;99.83;100006.28;6203216;22;20168;-82
2023/03/29 04:49:18;;;;;;;3.37;1.70;;;;;;;0.18;99.14;100013.06;6212246;22;20188;-83
2023/03/29 04:51:52;;;;;;;4.20;1.80;;;;;;;0.26;98.96;100013.19;6204944;22;20592;-83
2023/03/29 04:54:22;;;;;;;3.90;1.70;;;;;;;0.28;99.27;100008.56;6204626;22;20161;-83
2023/03/29 04:57:07;;;;;;;3.87;1.77;;;;;;;0.34;98.22;100015.06;6235523;22;20183;-83
2023/03/29 04:59:53;;;;;;;3.97;2.20;;;;;;;0.43;97.99;100007.13;6209937;22;20164;-83
2023/03/29 05:02:49;;;;;;;4.20;2.43;;;;;;;0.46;97.95;100011.31;6234484;22;20175;-86
2023/03/29 05:05:16;;;;;;;6.10;3.43;;;;;;;0.51;98.20;100014.34;6202112;22;20188;-85
2023/03/29 05:07:45;;;;;;;9.33;5.10;;;;;;;0.59;98.19;100008.31;6227723;22;20203;-84
2023/03/29 05:10:13;;;;;;;7.03;3.70;;;;;;;0.71;97.16;100004.50;6202639;22;20251;-84
2023/03/29 05:12:41;;;;;;;5.20;2.50;;;;;;;0.77;96.72;99999.47;6227185;22;20164;-83
2023/03/29 05:15:08;;;;;;;4.23;2.17;;;;;;;0.78;97.13;100000.28;6202047;22;20188;-86
2023/03/29 05:17:36;;;;;;;4.43;3.03;;;;;;;0.88;97.14;100001.06;6226862;22;20164;-85
2023/03/29 05:20:11;;;;;;;4.47;3.00;;;;;;;0.98;97.44;100003.66;6204133;22;20188;-84
2023/03/29 05:22:44;;;;;;;5.47;3.47;;;;;;;1.10;97.06;99992.72;6204072;22;20203;-85
2023/03/29 05:25:21;;;;;;;4.77;3.10;;;;;;;1.26;96.87;99995.50;6205970;22;20247;-85
2023/03/29 05:27:48;;;;;;;5.43;3.00;;;;;;;1.42;96.07;99996.63;6202282;22;20180;-85
2023/03/29 05:30:15;;;;;;;6.57;3.50;;;;;;;1.57;94.88;99985.38;6227064;22;20210;-87
2023/03/29 05:32:48;;;;;;;5.30;3.57;;;;;;;1.63;94.52;99990.03;6205543;22;20203;-85
2023/03/29 05:35:24;;;;;;;5.10;3.70;;;;;;;1.85;94.13;99979.94;6228600;22;20202;-83
2023/03/29 05:37:54;;;;;;;5.87;3.00;;;;;;;2.00;91.98;99981.88;6204041;22;20172;-87
2023/03/29 05:40:21;;;;;;;5.53;3.80;;;;;;;2.03;91.02;99986.84;6227185;22;20583;-83
2023/03/29 05:43:12;;;;;;;5.90;3.50;;;;;;;2.12;91.01;99983.25;6227788;22;20165;-83
2023/03/29 05:45:42;;;;;;;6.10;3.97;;;;;;;2.15;91.17;99976.81;6204012;22;20157;-83
2023/03/29 05:48:09;;;;;;;5.53;3.20;;;;;;;2.02;90.44;99981.69;6202117;22;20175;-83
2023/03/29 05:50:39;;;;;;;5.47;3.30;;;;;;;1.98;90.36;99981.19;6204027;22;20175;-84
2023/03/29 05:53:06;;;;;;;6.80;3.17;;;;;;;2.05;90.47;99976.13;6201965;22;20192;-86
2023/03/29 05:55:34;;;;;;;4.33;2.80;;;;;;;2.11;90.71;99981.59;6226544;22;20241;-83
2023/03/29 05:58:01;;;;;;;4.13;2.50;;;;;;;2.21;90.94;99979.66;6202096;22;20168;-83
2023/03/29 06:00:33;;;;;;;3.23;2.57;;;;;;;2.28;89.93;99985.16;6227502;22;20176;-84
2023/03/29 06:03:17;;;;;;;3.77;2.00;;;;;;;2.45;89.87;99981.59;6207791;22;20160;-85
2023/03/29 06:05:55;;;;;;;5.03;1.93;;;;;;;2.63;89.06;99992.91;6228038;22;20230;-85
2023/03/29 06:08:22;;;;;;;9.97;9.07;;;;;;;2.88;87.73;99998.28;6202689;22;20599;-86
2023/03/29 06:11:05;;;;;;;5.00;3.30;;;;;;;3.13;87.42;99991.25;6208328;22;20207;-85
2023/03/29 06:13:52;;;;;;;3.73;2.20;;;;;;;3.36;86.98;99994.91;6205921;22;20164;-86
2023/03/29 06:16:19;;;;;;;4.47;2.17;;;;;;;3.66;86.64;100001.34;6202092;22;20191;-85
2023/03/29 06:18:46;;;;;;;3.60;2.30;;;;;;;3.91;83.78;99997.69;6202025;22;20156;-83
2023/03/29 06:21:13;;;;;;;6.03;2.73;;;;;;;4.21;82.85;99996.97;6227684;22;20247;-84
2023/03/29 06:23:40;;;;;;;2.87;1.90;;;;;;;4.53;81.02;100003.16;6251937;22;20178;-84
2023/03/29 06:26:09;;;;;;;4.23;1.97;;;;;;;4.64;80.25;99998.31;6227282;22;20676;-85
2023/03/29 06:28:36;;;;;;;3.70;2.00;;;;;;;4.87;79.27;99996.53;6202877;22;20190;-88
2023/03/29 06:31:04;;;;;;;3.43;1.90;;;;;;;5.10;77.44;100006.38;6201552;22;20200;-86
2023/03/29 06:33:39;;;;;;;5.60;2.17;;;;;;;5.23;77.36;100002.13;6228187;22;20160;-86
2023/03/29 06:36:14;;;;;;;4.20;2.17;;;;;;;5.35;75.70;100007.03;6205570;22;20192;-85
2023/03/29 06:38:44;;;;;;;2.93;2.00;;;;;;;5.54;75.16;100002.09;6226834;22;20164;-85
2023/03/29 06:41:23;;;;;;;4.37;1.90;;;;;;;5.59;73.55;100012.19;6230177;22;20252;-85
2023/03/29 06:44:09;;;;;;;5.07;2.20;;;;;;;5.68;73.58;100011.13;6234278;22;20152;-86
2023/03/29 06:46:49;;;;;;;3.93;1.80;;;;;;;5.88;72.62;100004.31;6230128;22;20188;-85
2023/03/29 06:49:16;;;;;;;3.37;2.00;;;;;;;5.97;71.54;100003.22;6227099;22;20161;-87
2023/03/29 06:52:09;;;;;;;2.73;1.53;;;;;;;6.23;70.47;100000.16;6238747;22;20153;-84
2023/03/29 06:54:37;;;;;;;4.10;2.37;;;;;;;6.58;69.34;100009.22;6202861;22;20222;-84
2023/03/29 06:57:06;;;;;;;4.63;3.50;;;;;;;6.85;67.64;100019.22;6202916;22;20196;-87
2023/03/29 06:59:35;;;;;;;3.20;2.13;;;;;;;7.21;65.70;100007.72;6201673;22;20368;-85
2023/03/29 07:02:22;;;;;;;2.03;1.50;;;;;;;7.54;64.46;100016.91;6211323;22;20165;-86
2023/03/29 07:04:54;;;;;;;2.93;1.40;;;;;;;7.91;61.93;100011.28;6204147;22;20641;-86
2023/03/29 07:07:52;;;;;;;5.43;2.20;;;;;;;8.24;59.79;100006.19;6206763;22;20690;-88
2023/03/29 07:10:32;;;;;;;6.50;1.97;;;;;;;8.50;58.61;100010.88;6233379;22;20218;-84
2023/03/29 07:13:18;;;;;;;3.80;1.80;;;;;;;8.57;56.84;100003.75;6235560;22;20187;-86
2023/03/29 07:15:49;;;;;;;5.10;1.97;;;;;;;8.74;55.83;100010.41;6228806;22;20271;-85
2023/03/29 07:18:20;;;;;;;4.03;2.00;;;;;;;8.79;55.89;100004.47;6203845;22;20171;-86
2023/03/29 07:20:48;;;;;;;4.57;2.03;;;;;;;8.90;56.08;99993.22;6227957;22;20156;-86
2023/03/29 07:23:33;;;;;;;5.77;2.20;;;;;;;9.11;54.92;99995.75;6235520;22;20157;-84
2023/03/29 07:26:01;;;;;;;3.70;2.10;;;;;;;9.17;54.86;99988.78;6227116;22;20199;-85
2023/03/29 07:28:29;;;;;;;4.67;2.00;;;;;;;9.06;54.01;99984.00;6202372;22;20164;-86
2023/03/29 07:31:09;;;;;;;4.77;2.23;;;;;;;9.10;53.93;99983.41;6202108;22;20211;-85
2023/03/29 07:33:43;;;;;;;4.70;1.93;;;;;;;9.24;53.85;99987.75;6228324;22;20164;-86
2023/03/29 07:36:10;;;;;;;3.23;2.00;;;;;;;9.45;54.27;99988.63;6201778;22;20247;-85
2023/03/29 07:38:37;;;;;;;4.33;2.20;;;;;;;9.52;53.32;99976.91;6202481;22;20175;-83
2023/03/29 07:41:12;;;;;;;5.13;2.00;;;;;;;9.61;52.34;99978.34;6252735;22;20575;-84
2023/03/29 07:43:46;;;;;;;5.00;2.17;;;;;;;9.79;52.72;99972.41;6228302;22;20163;-85
2023/03/29 07:46:16;;;;;;;4.77;2.37;;;;;;;9.98;52.41;99984.13;6252385;22;20161;-85
2023/03/29 07:48:43;;;;;;;4.00;1.87;;;;;;;10.15;51.61;99985.34;6227414;22;20247;-87
2023/03/29 07:51:17;;;;;;;3.17;2.00;;;;;;;10.27;51.22;99975.66;6229182;22;20196;-85
2023/03/29 07:53:48;;;;;;;5.37;2.50;;;;;;;10.41;50.85;99982.63;6229309;22;20168;-85
2023/03/29 07:56:33;;;;;;;6.13;3.47;;;;;;;10.51;49.70;99983.03;6236771;22;20230;-86
2023/03/29 07:59:21;;;;;;;7.13;3.87;;;;;;;10.54;49.21;99987.94;6236565;22;20172;-86
2023/03/29 08:01:57;;;;;;;7.33;4.77;;;;;;;10.60;49.23;99980.94;6207651;22;20160;-85
2023/03/29 08:04:29;;;;;;;6.17;3.57;;;;;;;10.90;49.40;99978.56;6206506;22;20166;-87
2023/03/29 08:07:14;;;;;;;2.93;2.13;;;;;;;11.18;49.11;99976.34;6246932;22;20166;-84
2023/03/29 08:10:03;;;;;;;2.27;1.80;;;;;;;11.28;47.75;99968.66;6248128;22;20164;-84
2023/03/29 08:13:03;;;;;;;3.67;1.93;;;;;;;11.44;46.37;99970.00;6228933;22;20164;-86
2023/03/29 08:15:44;;;;;;;3.33;1.90;;;;;;;11.48;46.15;99971.19;6208150;22;20214;-86
2023/03/29 08:18:21;;;;;;;2.67;1.80;;;;;;;11.48;46.05;99963.16;6207379;22;20229;-80
2023/03/29 08:20:49;;;;;;;4.20;1.80;;;;;;;11.72;45.54;99954.31;6202990;22;20164;-86
2023/03/29 08:23:20;;;;;;;2.67;1.90;;;;;;;11.95;44.92;99963.63;6204245;22;20595;-84
2023/03/29 08:26:19;;;;;;;2.30;1.83;;;;;;;11.88;43.88;99955.66;6209932;22;20168;-86
2023/03/29 08:28:49;;;;;;;3.30;2.20;;;;;;;12.11;44.04;99955.84;6228753;22;20176;-83
2023/03/29 08:31:17;;;;;;;2.93;1.80;;;;;;;12.25;43.16;99953.84;6203402;22;20204;-87
2023/03/29 08:33:44;;;;;;;2.67;1.80;;;;;;;12.35;42.63;99951.47;6202977;22;20190;-87
2023/03/29 08:36:28;;;;;;;3.30;1.60;;;;;;;12.47;42.41;99954.22;6210356;22;20192;-85
2023/03/29 08:39:01;;;;;;;3.40;2.00;;;;;;;12.46;42.64;99956.09;6228853;22;20165;-84
2023/03/29 08:41:43;;;;;;;2.63;1.83;;;;;;;12.63;42.15;99956.31;6203707;22;20164;-84
2023/03/29 08:44:22;;;;;;;4.03;1.77;;;;;;;12.67;41.55;99950.28;6227742;22;20161;-86
2023/03/29 08:47:08;;;;;;;1.60;1.50;;;;;;;12.84;41.75;99949.63;6228437;22;20234;-84
2023/03/29 08:49:40;;;;;;;3.20;2.30;;;;;;;12.78;41.66;99954.09;6229544;22;20220;-85
2023/03/29 08:52:23;;;;;;;4.07;1.90;;;;;;;12.91;41.92;99953.91;6203551;22;20251;-84
2023/03/29 08:54:51;;;;;;;3.23;2.20;;;;;;;13.04;41.46;99951.03;6202836;22;20160;-86
2023/03/29 08:57:25;;;;;;;3.30;2.10;;;;;;;13.02;40.11;99938.84;6240138;22;20603;-84
2023/03/29 09:00:00;;;;;;;5.73;1.90;;;;;;;12.98;40.03;99945.72;6205349;22;20246;-85
2023/03/29 09:02:31;;;;;;;2.37;1.93;;;;;;;13.10;40.32;99947.44;6203208;22;20593;-86
2023/03/29 09:05:29;;;;;;;4.07;2.17;;;;;;;13.17;39.76;99936.59;6228565;22;20251;-84
2023/03/29 09:08:16;;;;;;;3.10;1.93;;;;;;;13.41;39.66;99937.50;6210576;22;20222;-86
2023/03/29 09:11:06;;;;;;;2.27;1.63;;;;;;;13.73;38.92;99944.22;6203548;22;20165;-85
2023/03/29 09:14:04;;;;;;;3.37;1.80;;;;;;;13.93;38.46;99939.34;6228291;22;20219;-85
2023/03/29 09:17:03;;;;;;;3.13;1.97;;;;;;;13.85;38.07;99936.19;6228454;22;20189;-86
2023/03/29 09:19:40;;;;;;;3.13;1.63;;;;;;;13.74;37.72;99929.72;6248471;22;20173;-85
2023/03/29 09:22:19;;;;;;;2.87;1.70;;;;;;;13.66;38.43;99933.59;6202523;22;20175;-85
2023/03/29 09:25:04;;;;;;;2.43;2.00;;;;;;;13.57;38.83;99934.16;6202375;22;20165;-83
2023/03/29 09:27:48;;;;;;;2.67;1.80;;;;;;;13.58;39.00;99936.59;6227799;22;20175;-85
2023/03/29 09:30:43;;;;;;;2.83;2.23;;;;;;;13.43;38.63;99938.09;6252140;22;20203;-86
2023/03/29 09:33:27;;;;;;;3.60;2.50;;;;;;;13.29;39.48;99940.16;6243597;22;20165;-85
2023/03/29 09:36:35;;;;;;;2.70;2.10;;;;;;;13.19;40.18;99945.28;6217766;22;20207;-84
2023/03/29 09:39:03;;;;;;;2.37;2.17;;;;;;;13.21;40.01;99940.47;6204908;22;20172;-84
2023/03/29 09:41:40;;;;;;;2.53;1.87;;;;;;;13.29;39.50;99940.16;6247818;22;20168;-85
2023/03/29 09:44:16;;;;;;;4.53;2.10;;;;;;;13.35;39.60;99950.00;6227625;22;20174;-85
2023/03/29 09:47:07;;;;;;;2.50;2.20;;;;;;;13.37;39.93;99949.78;6234317;22;20192;-84
2023/03/29 09:49:39;;;;;;;3.00;2.00;;;;;;;13.44;39.94;99950.47;6228708;22;20175;-84
2023/03/29 09:52:12;;;;;;;2.53;2.00;;;;;;;13.48;39.89;99954.38;6227032;22;20651;-83
2023/03/29 09:54:42;;;;;;;2.77;2.00;;;;;;;13.61;39.91;99952.31;6251635;22;20234;-85
2023/03/29 09:57:31;;;;;;;4.67;1.77;;;;;;;13.70;39.17;99943.88;6276013;22;20182;-84
2023/03/29 10:00:04;;;;;;;2.80;2.03;;;;;;;13.65;39.78;99947.25;6214886;22;20162;-84
2023/03/29 10:02:39;;;;;;;3.47;1.93;;;;;;;13.59;39.53;99943.63;6252273;22;20152;-85
2023/03/29 10:05:14;;;;;;;4.30;3.30;;;;;;;13.57;39.58;99956.50;6227985;22;20257;-84
2023/03/29 10:07:48;;;;;;;5.13;2.70;;;;;;;13.58;39.64;99943.84;6247152;22;20168;-84
2023/03/29 10:10:33;;;;;;;5.03;3.47;;;;;;;13.58;39.90;99952.75;6258088;22;20342;-85
2023/03/29 10:13:17;;;;;;;2.60;2.40;;;;;;;13.62;39.36;99945.06;6227537;22;20252;-85
2023/03/29 10:16:04;;;;;;;3.27;1.97;;;;;;;13.71;39.78;99940.97;6251384;22;20164;-86
2023/03/29 10:18:31;;;;;;;2.50;1.77;;;;;;;13.70;39.72;99946.56;6232072;22;20191;-86
2023/03/29 10:21:03;;;;;;;2.60;1.70;;;;;;;13.44;40.41;99942.41;6232713;22;20171;-85
2023/03/29 10:23:32;;;;;;;2.77;1.90;;;;;;;13.29;40.74;99950.13;6257127;22;20168;-84
2023/03/29 10:26:04;;;;;;;1.80;1.57;;;;;;;13.11;42.14;99949.09;6233480;22;20163;-85
2023/03/29 10:28:33;;;;;;;2.87;1.10;;;;;;;12.64;44.46;99942.66;6258247;22;20148;-83
2023/03/29 10:31:02;;;;;;;2.40;1.27;;;;;;;12.59;45.69;99941.69;6244614;22;20196;-85
2023/03/29 10:33:32;;;;;;;2.70;1.30;;;;;;;12.42;45.63;99949.53;6203133;22;20667;-85
2023/03/29 10:36:02;;;;;;;1.77;1.30;;;;;;;12.58;45.79;99943.56;6202106;22;20680;-85
2023/03/29 10:38:34;;;;;;;2.77;2.10;;;;;;;12.47;45.71;99943.47;6227110;22;20171;-83
2023/03/29 10:41:08;;;;;;;4.97;2.40;;;;;;;12.69;46.60;99936.63;6203007;22;20239;-84
2023/03/29 10:43:38;;;;;;;2.00;1.60;;;;;;;12.71;46.76;99937.19;6226546;22;20161;-84
2023/03/29 10:46:09;;;;;;;6.20;3.70;;;;;;;12.90;47.08;99932.63;6226814;22;20168;-85
2023/03/29 10:48:36;;;;;;;3.73;2.50;;;;;;;12.93;47.57;99941.03;6201838;22;20598;-84
2023/03/29 10:51:04;;;;;;;6.57;4.77;;;;;;;13.07;47.89;99938.97;6201790;22;20222;-83
2023/03/29 10:53:33;;;;;;;2.83;2.17;;;;;;;12.90;48.38;99924.53;6226466;22;20634;-85
2023/03/29 10:56:12;;;;;;;2.20;1.90;;;;;;;13.19;48.50;99926.44;6201868;22;20163;-84
2023/03/29 10:59:02;;;;;;;4.07;2.13;;;;;;;13.24;48.96;99926.59;6252168;22;20190;-85
2023/03/29 11:02:01;;;;;;;3.80;1.97;;;;;;;13.10;50.13;99911.66;6201971;22;20239;-84
2023/03/29 11:04:47;;;;;;;3.87;1.70;;;;;;;13.08;50.87;99917.25;6201878;22;20176;-85
2023/03/29 11:07:47;;;;;;;5.00;3.50;;;;;;;13.19;50.50;99910.31;6251481;22;20209;-84
2023/03/29 11:10:29;;;;;;;5.67;3.63;;;;;;;13.36;50.79;99905.06;6226591;22;20164;-82
2023/03/29 11:13:14;;;;;;;3.80;2.13;;;;;;;13.64;50.69;99914.13;6226663;22;20168;-84
2023/03/29 11:15:49;;;;;;;13.00;10.80;;;;;;;13.77;50.85;99905.00;6226395;22;20160;-83
2023/03/29 11:19:13;;;;;;;15.57;13.33;;;;;;;13.84;49.91;99894.13;6226289;22;20183;-85
2023/03/29 11:22:07;;;;;;;4.63;4.23;;;;;;;13.54;50.16;99897.72;6130848;23;20222;-83
2023/03/29 11:24:49;;;;;;;3.10;2.40;;;;;;;14.00;50.91;99893.41;6131823;23;20167;-83
2023/03/29 11:27:18;;;;;;;3.33;1.77;;;;;;;14.21;50.00;99892.00;6235134;22;20198;-84
2023/03/29 11:30:05;;;;;;;2.13;2.00;;;;;;;14.18;50.93;99892.47;6203989;22;20168;-83
2023/03/29 11:32:47;;;;;;;3.90;1.60;;;;;;;14.35;51.03;99882.59;6198020;22;20164;-83
2023/03/29 11:35:26;;;;;;;1.23;0.80;;;;;;;14.43;52.32;99876.84;6203402;22;20157;-83
2023/03/29 11:38:11;;;;;;;0.63;0.63;;;;;;;14.54;51.94;99876.00;6203096;22;20226;-83
2023/03/29 11:40:44;;;;;;;0.80;0.60;;;;;;;14.42;52.76;99873.34;6253577;22;20171;-83
2023/03/29 11:43:21;;;;;;;1.27;0.60;;;;;;;14.75;53.07;99875.34;6228719;22;20237;-83
2023/03/29 11:45:52;;;;;;;0.50;0.50;;;;;;;14.88;52.47;99871.56;6228258;22;20507;-85
2023/03/29 11:48:33;;;;;;;0.83;0.50;;;;;;;15.11;52.92;99876.84;6205193;22;20474;-87
2023/03/29 11:51:10;;;;;;;0.60;0.60;;;;;;;14.94;53.02;99870.56;6216249;22;20222;-84
2023/03/29 11:53:55;;;;;;;0.60;0.60;;;;;;;14.52;54.19;99868.16;6203629;22;20273;-85
2023/03/29 11:56:35;;;;;;;1.10;0.60;;;;;;;14.03;54.92;99856.06;6228286;22;20172;-84
2023/03/29 11:59:27;;;;;;;0.87;0.50;;;;;;;13.73;55.34;99859.94;6203039;22;20576;-83
2023/03/29 12:01:56;;;;;;;2.30;2.10;;;;;;;13.42;56.74;99853.03;6212820;22;20193;-85
2023/03/29 12:04:37;;;;;;;1.60;1.43;;;;;;;13.46;57.70;99855.00;6203103;22;20164;-83
2023/03/29 12:07:22;;;;;;;1.10;0.50;;;;;;;13.65;57.58;99850.34;6203284;22;20159;-85
2023/03/29 12:09:58;;;;;;;1.03;0.50;;;;;;;13.63;58.23;99857.81;6202703;22;20164;-85